Hlavní strana
METAR-TAF:

METAR-TAF

Letiště :

Mezinárodní letiště Káhira

Káhira, Egypt

zeměpisná šířka: 30-08N, zeměpisná délka: 031-24E, výška: 64 m

Aktuální stav počasí

Zpráva byla vytvořena před 13 minutami, v 01:30 UTC
Severoseverovýchodní vítr 4 kt
Teplota 17°C
Vlhkost vzduchu 77%
Tlak 1015 hPa
Viditelnost: 6000 m

METAR: HECA 060130Z 02004KT 6000 NSC 17/13 Q1015 NOSIG

Čas: 03:43 (01:43 UTC)

Předpověď počasí

Zpráva byla vytvořena před 2 hodinami a 43 minutami, v 23:00 UTC
Předpověď platná od 06 v 00 UTC do 07 v 06 UTC
Severoseverovýchodní vítr 6 kt
Viditelnost: 6000 m
Pravděpodobnost 40%
od 06 v 00 UTC do 06 v 08 UTC
Viditelnost: 4000 m
kouřmo

TAF: HECA 052300Z 0600/0706 03006KT 6000 NSC PROB40 0600/0608 4000 BR

Stav a předpovědi počasí z více než 4 000 letišť (zprávy METAR a TAF).

Červené a žluté tečky na mapě představují dostupné meteorologické stanice.

Když kurzor umístíte na tečku, zobrazí se název stanice.

Pak kliknutím zobrazíte stav a předpověď počasí.

Chcete-li změnit mapu, kliknutím na zelené tlačítko se znaménkem +mapu přiblížíte, kliknutím na zelené tlačítko se znaménkem – mapu oddálíte a kliknutím na zelené šipky přejdete na sousední mapy.


METAR-TAF: